Quinsam — VY6800 — position and weather

sailwx.info

Track history (hours):
 
Tides and Currents Weather Stations Pressure Air Temp Water Temp Dewpoint Dewpoint Depression Visibility Wind Speed Wind Dir Waves Ship Positions

Quinsam

Last reported at 2016-Jun-28 04:34 UTC. Time now 2016-Jun-28 06:03 UTC.
Position N 49°11' W 123°52'.

Length 88 m; draft 1.5 m.

Type: Ship. MMSI: 316001266.

Date/timePositionNaut miles runAvg speedWind from/ knotsBaromVisibWave heightAir tempDewpointWater temp
2016-Jun-28 04:34N 49°11' W 123°52'1 0.7
2016-Jun-28 03:33N 49°10' W 123°53'1 1.0
2016-Jun-28 02:34N 49°11' W 123°52'0 0.0
2016-Jun-28 01:33N 49°11' W 123°52'0 0.0
2016-Jun-28 00:34N 49°11' W 123°52'2 1.7
2016-Jun-27 23:33N 49°10' W 123°54'1 1.1
2016-Jun-27 22:31N 49°10' W 123°56'1 0.9
2016-Jun-27 21:34N 49°10' W 123°55'2 2.1
2016-Jun-27 20:34N 49°11' W 123°52'0 0.0
2016-Jun-27 19:33N 49°11' W 123°52'2 1.5
2016-Jun-27 18:33N 49°10' W 123°54'1 1.3
2016-Jun-27 17:30N 49°10' W 123°56'0 0.5
2016-Jun-27 16:33N 49°10' W 123°55'2 2.4
2016-Jun-27 15:33N 49°11' W 123°52'0 0.0
2016-Jun-27 14:34N 49°11' W 123°52'3 2.8
2016-Jun-27 13:33N 49°10' W 123°56'3 2.8
2016-Jun-27 12:32N 49°11' W 123°52'0 0.0
2016-Jun-27 11:32N 49°11' W 123°52'0 0.0
2016-Jun-27 10:32N 49°11' W 123°52'0 0.0
2016-Jun-27 09:32N 49°11' W 123°52'0 0.0
2016-Jun-27 08:32N 49°11' W 123°52'0 0.0
2016-Jun-27 07:29N 49°11' W 123°52'0 0.0
2016-Jun-27 06:32N 49°11' W 123°52'1 0.5
2016-Jun-27 05:34N 49°11' W 123°52'0 0.2
2016-Jun-27 04:33N 49°11' W 123°52'1 0.9
2016-Jun-27 03:33N 49°10' W 123°53'1 1.1
2016-Jun-27 02:34N 49°11' W 123°52'0 0.1
2016-Jun-27 01:33N 49°11' W 123°52'0 0.0
2016-Jun-27 00:34N 49°11' W 123°52'2 1.5
2016-Jun-26 23:33N 49°10' W 123°54'1 1.2
2016-Jun-26 22:27N 49°10' W 123°56'3 3.2
2016-Jun-26 21:33N 49°11' W 123°52'1 1.5
2016-Jun-26 20:34N 49°10' W 123°54'1 1.5
2016-Jun-26 19:33N 49°11' W 123°52'2 1.7
2016-Jun-26 18:32N 49°10' W 123°54'1 1.0
2016-Jun-26 17:28N 49°10' W 123°56'1 1.1
2016-Jun-26 16:34N 49°10' W 123°54'2 1.9
2016-Jun-26 15:34N 49°11' W 123°52'3 2.8
2016-Jun-26 14:31N 49°10' W 123°56'0 0.4
2016-Jun-26 13:33N 49°10' W 123°55'2 2.4
2016-Jun-26 12:32N 49°11' W 123°52'0 0.0
2016-Jun-26 08:32N 49°11' W 123°52'0 0.0
2016-Jun-26 07:32N 49°11' W 123°52'0 0.0
2016-Jun-26 06:32N 49°11' W 123°52'0 0.0
2016-Jun-26 05:33N 49°11' W 123°52'0 0.0
2016-Jun-26 04:33N 49°11' W 123°52'1 0.6
2016-Jun-26 03:33N 49°11' W 123°52'0 0.5
2016-Jun-26 02:33N 49°11' W 123°52'0 0.1
2016-Jun-26 01:33N 49°11' W 123°52'0 0.0
2016-Jun-26 00:33N 49°11' W 123°52'1 1.5
2016-Jun-25 23:32N 49°10' W 123°54'1 1.3
2016-Jun-25 22:26N 49°10' W 123°56'3 3.3
2016-Jun-25 21:33N 49°11' W 123°52'0 0.0
2016-Jun-25 20:33N 49°11' W 123°52'0 0.0
2016-Jun-25 19:33N 49°11' W 123°52'2 2.0
2016-Jun-25 18:33N 49°10' W 123°54'1 0.9
2016-Jun-25 17:33N 49°10' W 123°56'1 0.7
2016-Jun-25 16:34N 49°10' W 123°55'2 2.2
2016-Jun-25 15:33N 49°11' W 123°52'0 0.0
2016-Jun-25 14:33N 49°11' W 123°52'3 2.6
2016-Jun-25 13:33N 49°10' W 123°55'3 2.6
2016-Jun-25 12:33N 49°11' W 123°52'0 0.0
2016-Jun-25 11:31N 49°11' W 123°52'0 0.0
2016-Jun-25 10:22N 49°11' W 123°52'0 0.0
2016-Jun-25 06:25N 49°11' W 123°52'1 0.6
2016-Jun-25 05:33N 49°11' W 123°52'1 0.5
2016-Jun-25 04:33N 49°11' W 123°52'1 1.2
2016-Jun-25 03:33N 49°11' W 123°53'0 0.3
2016-Jun-25 02:33N 49°11' W 123°53'1 0.7
2016-Jun-25 01:34N 49°11' W 123°52'0 0.1
2016-Jun-25 00:33N 49°11' W 123°52'2 2.3
2016-Jun-24 23:34N 49°10' W 123°55'1 0.5
2016-Jun-24 22:24N 49°10' W 123°56'0 0.2
2016-Jun-24 21:34N 49°10' W 123°56'2 2.4
2016-Jun-24 20:34N 49°11' W 123°52'0 0.3
2016-Jun-24 19:33N 49°11' W 123°52'2 2.1
2016-Jun-24 18:33N 49°10' W 123°55'1 0.8
2016-Jun-24 17:31N 49°10' W 123°56'0 0.0
2016-Jun-24 16:32N 49°10' W 123°56'3 2.6
2016-Jun-24 15:34N 49°11' W 123°52'0 0.4
2016-Jun-24 14:33N 49°11' W 123°52'2 2.4
2016-Jun-24 13:33N 49°10' W 123°55'2 2.3
2016-Jun-24 12:32N 49°11' W 123°52'0 0.0
2016-Jun-24 11:32N 49°11' W 123°52'0 0.0
2016-Jun-24 10:32N 49°11' W 123°52'0 0.0
2016-Jun-24 09:32N 49°11' W 123°52'0 0.0
2016-Jun-24 08:32N 49°11' W 123°52'0 0.0
2016-Jun-24 07:32N 49°11' W 123°52'0 0.0
2016-Jun-24 04:34N 49°11' W 123°52'1 0.8
2016-Jun-24 03:33N 49°11' W 123°53'0 0.5
2016-Jun-24 02:33N 49°11' W 123°52'0 0.4
2016-Jun-24 01:34N 49°11' W 123°52'0 0.1
2016-Jun-24 00:34N 49°11' W 123°52'1 1.4
2016-Jun-23 23:34N 49°10' W 123°54'2 1.4
2016-Jun-23 22:29N 49°10' W 123°56'0 0.0
2016-Jun-23 21:18N 49°10' W 123°56'2 2.2
2016-Jun-23 20:34N 49°10' W 123°53'1 1.3
2016-Jun-23 19:34N 49°11' W 123°52'0 0.5
2016-Jun-23 18:33N 49°11' W 123°52'2 2.4
2016-Jun-23 17:33N 49°10' W 123°56'0 0.0
2016-Jun-23 16:34N 49°10' W 123°56'3 2.8
2016-Jun-23 15:34N 49°11' W 123°52'0 0.0
2016-Jun-23 14:34N 49°11' W 123°52'3 2.5
2016-Jun-23 13:34N 49°10' W 123°55'3 2.5
2016-Jun-23 12:34N 49°11' W 123°52'0 0.0
2016-Jun-23 11:33N 49°11' W 123°52'0 0.0
2016-Jun-23 10:33N 49°11' W 123°52'0 0.0
2016-Jun-23 09:33N 49°11' W 123°52'0 0.0
2016-Jun-23 08:33N 49°11' W 123°52'0 0.0
2016-Jun-23 07:33N 49°11' W 123°52'3 1.2
2016-Jun-23 05:14N 49°10' W 123°56'3 4.3
2016-Jun-23 04:33N 49°11' W 123°52'1 1.0
2016-Jun-23 03:33N 49°11' W 123°53'1 0.9
2016-Jun-23 02:34N 49°11' W 123°52'0 0.1
2016-Jun-23 01:33N 49°11' W 123°52'0 0.0
2016-Jun-23 00:33N 49°11' W 123°52'2 1.5
2016-Jun-22 23:33N 49°10' W 123°54'1 1.4
2016-Jun-22 22:33N 49°10' W 123°56'1 0.6
2016-Jun-22 21:33N 49°10' W 123°55'2 1.9
2016-Jun-22 20:34N 49°11' W 123°52'0 0.4
2016-Jun-22 19:33N 49°11' W 123°52'1 0.5
2016-Jun-22 18:34N 49°11' W 123°52'2 2.0
2016-Jun-22 17:34N 49°10' W 123°55'0 0.4
2016-Jun-22 16:23N 49°10' W 123°56'1 1.6
2016-Jun-22 15:33N 49°10' W 123°54'2 1.6
2016-Jun-22 14:33N 49°11' W 123°52'2 2.3
2016-Jun-22 13:33N 49°10' W 123°55'2 2.2
2016-Jun-22 12:33N 49°11' W 123°52'0 0.0
2016-Jun-22 11:33N 49°11' W 123°52'0 0.0
2016-Jun-22 10:33N 49°11' W 123°52'0 0.0
2016-Jun-22 09:33N 49°11' W 123°52'0 0.0
2016-Jun-22 08:33N 49°11' W 123°52'0 0.0
2016-Jun-22 07:33N 49°11' W 123°52'0 0.0
2016-Jun-22 06:33N 49°11' W 123°52'0 0.0
2016-Jun-22 05:33N 49°11' W 123°52'0 0.0
2016-Jun-22 04:33N 49°11' W 123°52'1 0.6
2016-Jun-22 03:33N 49°11' W 123°52'0 0.4
2016-Jun-22 02:33N 49°11' W 123°53'1 0.9
2016-Jun-22 01:33N 49°11' W 123°52'0 0.1
2016-Jun-22 00:33N 49°11' W 123°52'1 1.3
2016-Jun-21 23:33N 49°10' W 123°54'2 1.5
2016-Jun-21 22:30N 49°10' W 123°56'0 0.3
2016-Jun-21 21:33N 49°10' W 123°55'2 2.4
2016-Jun-21 20:33N 49°11' W 123°52'0 0.3
2016-Jun-21 19:33N 49°11' W 123°52'2 2.1
2016-Jun-21 18:33N 49°10' W 123°55'1 0.7
2016-Jun-21 17:29N 49°10' W 123°56'1 0.7
2016-Jun-21 16:33N 49°10' W 123°55'2 2.2
2016-Jun-21 15:33N 49°11' W 123°52'0 0.0
2016-Jun-21 14:33N 49°11' W 123°52'2 2.4
2016-Jun-21 13:33N 49°10' W 123°55'2 2.3
2016-Jun-21 12:31N 49°11' W 123°52'0 0.0
2016-Jun-21 11:31N 49°11' W 123°52'0 0.0
2016-Jun-21 10:31N 49°11' W 123°52'0 0.0
2016-Jun-21 09:31N 49°11' W 123°52'0 0.0
2016-Jun-21 08:31N 49°11' W 123°52'0 0.0
2016-Jun-21 07:31N 49°11' W 123°52'0 0.1
2016-Jun-21 05:33N 49°11' W 123°52'0 0.0
2016-Jun-21 04:34N 49°11' W 123°52'1 0.5
2016-Jun-21 03:33N 49°11' W 123°53'0 0.3
2016-Jun-21 02:34N 49°11' W 123°53'1 0.9
2016-Jun-21 01:33N 49°11' W 123°52'0 0.1
2016-Jun-21 00:33N 49°11' W 123°52'2 1.7
2016-Jun-20 23:33N 49°10' W 123°54'1 1.2
2016-Jun-20 22:33N 49°10' W 123°56'0 0.4
2016-Jun-20 21:33N 49°10' W 123°55'2 2.5
2016-Jun-20 20:33N 49°11' W 123°52'0 0.0
2016-Jun-20 19:33N 49°11' W 123°52'2 1.6
2016-Jun-20 18:33N 49°10' W 123°54'1 1.2
2016-Jun-20 17:28N 49°10' W 123°56'1 0.8
2016-Jun-20 16:33N 49°10' W 123°55'2 2.1
2016-Jun-20 15:33N 49°11' W 123°52'0 0.1
2016-Jun-20 14:33N 49°11' W 123°52'2 2.3
2016-Jun-20 13:33N 49°10' W 123°55'2 2.3
2016-Jun-20 12:32N 49°11' W 123°52'0 0.0
2016-Jun-20 11:32N 49°11' W 123°52'0 0.0
2016-Jun-20 10:32N 49°11' W 123°52'0 0.0
2016-Jun-20 09:32N 49°11' W 123°52'0 0.0
2016-Jun-20 08:32N 49°11' W 123°52'0 0.0
2016-Jun-20 07:32N 49°11' W 123°52'0 0.0
2016-Jun-20 06:32N 49°11' W 123°52'0 0.2
2016-Jun-20 05:33N 49°11' W 123°52'0 0.2
2016-Jun-20 04:34N 49°11' W 123°52'1 0.6
2016-Jun-20 03:33N 49°11' W 123°53'0 0.3
2016-Jun-20 02:33N 49°11' W 123°53'1 0.5
2016-Jun-20 01:34N 49°11' W 123°52'0 0.4
2016-Jun-20 00:33N 49°11' W 123°52'1 0.6
2016-Jun-19 23:33N 49°11' W 123°53'2 2.2
2016-Jun-19 22:32N 49°10' W 123°56'3 2.9
2016-Jun-19 21:33N 49°11' W 123°52'1 0.5
2016-Jun-19 20:34N 49°11' W 123°52'1 0.5
2016-Jun-19 19:33N 49°11' W 123°52'2 1.7
2016-Jun-19 18:33N 49°10' W 123°54'1 1.2
2016-Jun-19 17:32N 49°10' W 123°56'1 0.9
2016-Jun-19 16:33N 49°10' W 123°54'2 1.9
2016-Jun-19 15:33N 49°11' W 123°52'3 1.4
2016-Jun-19 13:34N 49°10' W 123°56'3 2.7
2016-Jun-19 12:33N 49°11' W 123°52'0 0.0
2016-Jun-19 11:33N 49°11' W 123°52'0 0.0
2016-Jun-19 10:33N 49°11' W 123°52'0 0.0
2016-Jun-19 09:33N 49°11' W 123°52'0 0.0
2016-Jun-19 08:33N 49°11' W 123°52'0 0.0
2016-Jun-19 07:33N 49°11' W 123°52'0 0.0
2016-Jun-19 06:33N 49°11' W 123°52'0 0.5
2016-Jun-19 05:34N 49°11' W 123°52'0 0.1
2016-Jun-19 04:33N 49°11' W 123°52'0 0.2
2016-Jun-19 03:33N 49°11' W 123°53'1 0.7
2016-Jun-19 02:34N 49°11' W 123°52'0 0.0
2016-Jun-19 01:33N 49°11' W 123°52'0 0.0
2016-Jun-19 00:34N 49°11' W 123°52'2 1.7
2016-Jun-18 23:33N 49°10' W 123°54'1 1.1
2016-Jun-18 22:27N 49°10' W 123°56'3 3.2
2016-Jun-18 21:33N 49°11' W 123°52'0 0.0
2016-Jun-18 20:33N 49°11' W 123°52'0 0.0
2016-Jun-18 19:33N 49°11' W 123°52'2 1.9
2016-Jun-18 18:33N 49°10' W 123°54'1 0.9
2016-Jun-18 17:26N 49°10' W 123°56'1 1.2
2016-Jun-18 16:33N 49°10' W 123°54'2 1.9
2016-Jun-18 15:34N 49°11' W 123°52'0 0.0
2016-Jun-18 14:33N 49°11' W 123°52'3 2.9
2016-Jun-18 13:34N 49°10' W 123°56'3 2.8
2016-Jun-18 12:32N 49°11' W 123°52'0 0.0
2016-Jun-18 11:32N 49°11' W 123°52'0 0.0
2016-Jun-18 10:32N 49°11' W 123°52'0 0.0
2016-Jun-18 09:32N 49°11' W 123°52'0 0.0
2016-Jun-18 08:32N 49°11' W 123°52'0 0.0
2016-Jun-18 07:32N 49°11' W 123°52'0 0.0
2016-Jun-18 06:32N 49°11' W 123°52'1 0.6
2016-Jun-18 05:34N 49°11' W 123°53'0 0.1
2016-Jun-18 04:34N 49°11' W 123°52'  
Track history (hours):
 
Tides and Currents Weather Stations Pressure Air Temp Water Temp Dewpoint Dewpoint Depression Visibility Wind Speed Wind Dir Waves Ship Positions

Quinsam

Last reported at 2016-Jun-28 04:34 UTC. Time now 2016-Jun-28 06:03 UTC.
Position N 49°11' W 123°52'.

Length 88 m; draft 1.5 m.

Type: Ship. MMSI: 316001266.

Date/timePositionNaut miles runAvg speedWind from/ knotsBaromVisibWave heightAir tempDewpointWater temp
2016-Jun-28 04:34N 49°11' W 123°52'1 0.7
2016-Jun-28 03:33N 49°10' W 123°53'1 1.0
2016-Jun-28 02:34N 49°11' W 123°52'0 0.0
2016-Jun-28 01:33N 49°11' W 123°52'0 0.0
2016-Jun-28 00:34N 49°11' W 123°52'2 1.7
2016-Jun-27 23:33N 49°10' W 123°54'1 1.1
2016-Jun-27 22:31N 49°10' W 123°56'1 0.9
2016-Jun-27 21:34N 49°10' W 123°55'2 2.1
2016-Jun-27 20:34N 49°11' W 123°52'0 0.0
2016-Jun-27 19:33N 49°11' W 123°52'2 1.5
2016-Jun-27 18:33N 49°10' W 123°54'1 1.3
2016-Jun-27 17:30N 49°10' W 123°56'0 0.5
2016-Jun-27 16:33N 49°10' W 123°55'2 2.4
2016-Jun-27 15:33N 49°11' W 123°52'0 0.0
2016-Jun-27 14:34N 49°11' W 123°52'3 2.8
2016-Jun-27 13:33N 49°10' W 123°56'3 2.8
2016-Jun-27 12:32N 49°11' W 123°52'0 0.0
2016-Jun-27 11:32N 49°11' W 123°52'0 0.0
2016-Jun-27 10:32N 49°11' W 123°52'0 0.0
2016-Jun-27 09:32N 49°11' W 123°52'0 0.0
2016-Jun-27 08:32N 49°11' W 123°52'0 0.0
2016-Jun-27 07:29N 49°11' W 123°52'0 0.0
2016-Jun-27 06:32N 49°11' W 123°52'1 0.5
2016-Jun-27 05:34N 49°11' W 123°52'0 0.2
2016-Jun-27 04:33N 49°11' W 123°52'1 0.9
2016-Jun-27 03:33N 49°10' W 123°53'1 1.1
2016-Jun-27 02:34N 49°11' W 123°52'0 0.1
2016-Jun-27 01:33N 49°11' W 123°52'0 0.0
2016-Jun-27 00:34N 49°11' W 123°52'2 1.5
2016-Jun-26 23:33N 49°10' W 123°54'1 1.2
2016-Jun-26 22:27N 49°10' W 123°56'3 3.2
2016-Jun-26 21:33N 49°11' W 123°52'1 1.5
2016-Jun-26 20:34N 49°10' W 123°54'1 1.5
2016-Jun-26 19:33N 49°11' W 123°52'2 1.7
2016-Jun-26 18:32N 49°10' W 123°54'1 1.0
2016-Jun-26 17:28N 49°10' W 123°56'1 1.1
2016-Jun-26 16:34N 49°10' W 123°54'2 1.9
2016-Jun-26 15:34N 49°11' W 123°52'3 2.8
2016-Jun-26 14:31N 49°10' W 123°56'0 0.4
2016-Jun-26 13:33N 49°10' W 123°55'2 2.4
2016-Jun-26 12:32N 49°11' W 123°52'0 0.0
2016-Jun-26 08:32N 49°11' W 123°52'0 0.0
2016-Jun-26 07:32N 49°11' W 123°52'0 0.0
2016-Jun-26 06:32N 49°11' W 123°52'0 0.0
2016-Jun-26 05:33N 49°11' W 123°52'0 0.0
2016-Jun-26 04:33N 49°11' W 123°52'1 0.6
2016-Jun-26 03:33N 49°11' W 123°52'0 0.5
2016-Jun-26 02:33N 49°11' W 123°52'0 0.1
2016-Jun-26 01:33N 49°11' W 123°52'0 0.0
2016-Jun-26 00:33N 49°11' W 123°52'1 1.5
2016-Jun-25 23:32N 49°10' W 123°54'1 1.3
2016-Jun-25 22:26N 49°10' W 123°56'3 3.3
2016-Jun-25 21:33N 49°11' W 123°52'0 0.0
2016-Jun-25 20:33N 49°11' W 123°52'0 0.0
2016-Jun-25 19:33N 49°11' W 123°52'2 2.0
2016-Jun-25 18:33N 49°10' W 123°54'1 0.9
2016-Jun-25 17:33N 49°10' W 123°56'1 0.7
2016-Jun-25 16:34N 49°10' W 123°55'2 2.2
2016-Jun-25 15:33N 49°11' W 123°52'0 0.0
2016-Jun-25 14:33N 49°11' W 123°52'3 2.6
2016-Jun-25 13:33N 49°10' W 123°55'3 2.6
2016-Jun-25 12:33N 49°11' W 123°52'0 0.0
2016-Jun-25 11:31N 49°11' W 123°52'0 0.0
2016-Jun-25 10:22N 49°11' W 123°52'0 0.0
2016-Jun-25 06:25N 49°11' W 123°52'1 0.6
2016-Jun-25 05:33N 49°11' W 123°52'1 0.5
2016-Jun-25 04:33N 49°11' W 123°52'1 1.2
2016-Jun-25 03:33N 49°11' W 123°53'0 0.3
2016-Jun-25 02:33N 49°11' W 123°53'1 0.7
2016-Jun-25 01:34N 49°11' W 123°52'0 0.1
2016-Jun-25 00:33N 49°11' W 123°52'2 2.3
2016-Jun-24 23:34N 49°10' W 123°55'1 0.5
2016-Jun-24 22:24N 49°10' W 123°56'0 0.2
2016-Jun-24 21:34N 49°10' W 123°56'2 2.4
2016-Jun-24 20:34N 49°11' W 123°52'0 0.3
2016-Jun-24 19:33N 49°11' W 123°52'2 2.1
2016-Jun-24 18:33N 49°10' W 123°55'1 0.8
2016-Jun-24 17:31N 49°10' W 123°56'0 0.0
2016-Jun-24 16:32N 49°10' W 123°56'3 2.6
2016-Jun-24 15:34N 49°11' W 123°52'0 0.4
2016-Jun-24 14:33N 49°11' W 123°52'2 2.4
2016-Jun-24 13:33N 49°10' W 123°55'2 2.3
2016-Jun-24 12:32N 49°11' W 123°52'0 0.0
2016-Jun-24 11:32N 49°11' W 123°52'0 0.0
2016-Jun-24 10:32N 49°11' W 123°52'0 0.0
2016-Jun-24 09:32N 49°11' W 123°52'0 0.0
2016-Jun-24 08:32N 49°11' W 123°52'0 0.0
2016-Jun-24 07:32N 49°11' W 123°52'0 0.0
2016-Jun-24 04:34N 49°11' W 123°52'1 0.8
2016-Jun-24 03:33N 49°11' W 123°53'0 0.5
2016-Jun-24 02:33N 49°11' W 123°52'0 0.4
2016-Jun-24 01:34N 49°11' W 123°52'0 0.1
2016-Jun-24 00:34N 49°11' W 123°52'1 1.4
2016-Jun-23 23:34N 49°10' W 123°54'2 1.4
2016-Jun-23 22:29N 49°10' W 123°56'0 0.0
2016-Jun-23 21:18N 49°10' W 123°56'2 2.2
2016-Jun-23 20:34N 49°10' W 123°53'1 1.3
2016-Jun-23 19:34N 49°11' W 123°52'0 0.5
2016-Jun-23 18:33N 49°11' W 123°52'2 2.4
2016-Jun-23 17:33N 49°10' W 123°56'0 0.0
2016-Jun-23 16:34N 49°10' W 123°56'3 2.8
2016-Jun-23 15:34N 49°11' W 123°52'0 0.0
2016-Jun-23 14:34N 49°11' W 123°52'3 2.5
2016-Jun-23 13:34N 49°10' W 123°55'3 2.5
2016-Jun-23 12:34N 49°11' W 123°52'0 0.0
2016-Jun-23 11:33N 49°11' W 123°52'0 0.0
2016-Jun-23 10:33N 49°11' W 123°52'0 0.0
2016-Jun-23 09:33N 49°11' W 123°52'0 0.0
2016-Jun-23 08:33N 49°11' W 123°52'0 0.0
2016-Jun-23 07:33N 49°11' W 123°52'3 1.2
2016-Jun-23 05:14N 49°10' W 123°56'3 4.3
2016-Jun-23 04:33N 49°11' W 123°52'1 1.0
2016-Jun-23 03:33N 49°11' W 123°53'1 0.9
2016-Jun-23 02:34N 49°11' W 123°52'0 0.1
2016-Jun-23 01:33N 49°11' W 123°52'0 0.0
2016-Jun-23 00:33N 49°11' W 123°52'2 1.5
2016-Jun-22 23:33N 49°10' W 123°54'1 1.4
2016-Jun-22 22:33N 49°10' W 123°56'1 0.6
2016-Jun-22 21:33N 49°10' W 123°55'2 1.9
2016-Jun-22 20:34N 49°11' W 123°52'0 0.4
2016-Jun-22 19:33N 49°11' W 123°52'1 0.5
2016-Jun-22 18:34N 49°11' W 123°52'2 2.0
2016-Jun-22 17:34N 49°10' W 123°55'0 0.4
2016-Jun-22 16:23N 49°10' W 123°56'1 1.6
2016-Jun-22 15:33N 49°10' W 123°54'2 1.6
2016-Jun-22 14:33N 49°11' W 123°52'2 2.3
2016-Jun-22 13:33N 49°10' W 123°55'2 2.2
2016-Jun-22 12:33N 49°11' W 123°52'0 0.0
2016-Jun-22 11:33N 49°11' W 123°52'0 0.0
2016-Jun-22 10:33N 49°11' W 123°52'0 0.0
2016-Jun-22 09:33N 49°11' W 123°52'0 0.0
2016-Jun-22 08:33N 49°11' W 123°52'0 0.0
2016-Jun-22 07:33N 49°11' W 123°52'0 0.0
2016-Jun-22 06:33N 49°11' W 123°52'0 0.0
2016-Jun-22 05:33N 49°11' W 123°52'0 0.0
2016-Jun-22 04:33N 49°11' W 123°52'1 0.6
2016-Jun-22 03:33N 49°11' W 123°52'0 0.4
2016-Jun-22 02:33N 49°11' W 123°53'1 0.9
2016-Jun-22 01:33N 49°11' W 123°52'0 0.1
2016-Jun-22 00:33N 49°11' W 123°52'1 1.3
2016-Jun-21 23:33N 49°10' W 123°54'2 1.5
2016-Jun-21 22:30N 49°10' W 123°56'0 0.3
2016-Jun-21 21:33N 49°10' W 123°55'2 2.4
2016-Jun-21 20:33N 49°11' W 123°52'0 0.3
2016-Jun-21 19:33N 49°11' W 123°52'2 2.1
2016-Jun-21 18:33N 49°10' W 123°55'1 0.7
2016-Jun-21 17:29N 49°10' W 123°56'1 0.7
2016-Jun-21 16:33N 49°10' W 123°55'2 2.2
2016-Jun-21 15:33N 49°11' W 123°52'0 0.0
2016-Jun-21 14:33N 49°11' W 123°52'2 2.4
2016-Jun-21 13:33N 49°10' W 123°55'2 2.3
2016-Jun-21 12:31N 49°11' W 123°52'0 0.0
2016-Jun-21 11:31N 49°11' W 123°52'0 0.0
2016-Jun-21 10:31N 49°11' W 123°52'0 0.0
2016-Jun-21 09:31N 49°11' W 123°52'0 0.0
2016-Jun-21 08:31N 49°11' W 123°52'0 0.0
2016-Jun-21 07:31N 49°11' W 123°52'0 0.1
2016-Jun-21 05:33N 49°11' W 123°52'0 0.0
2016-Jun-21 04:34N 49°11' W 123°52'1 0.5
2016-Jun-21 03:33N 49°11' W 123°53'0 0.3
2016-Jun-21 02:34N 49°11' W 123°53'1 0.9
2016-Jun-21 01:33N 49°11' W 123°52'0 0.1
2016-Jun-21 00:33N 49°11' W 123°52'2 1.7
2016-Jun-20 23:33N 49°10' W 123°54'1 1.2
2016-Jun-20 22:33N 49°10' W 123°56'0 0.4
2016-Jun-20 21:33N 49°10' W 123°55'2 2.5
2016-Jun-20 20:33N 49°11' W 123°52'0 0.0
2016-Jun-20 19:33N 49°11' W 123°52'2 1.6
2016-Jun-20 18:33N 49°10' W 123°54'1 1.2
2016-Jun-20 17:28N 49°10' W 123°56'1 0.8
2016-Jun-20 16:33N 49°10' W 123°55'2 2.1
2016-Jun-20 15:33N 49°11' W 123°52'0 0.1
2016-Jun-20 14:33N 49°11' W 123°52'2 2.3
2016-Jun-20 13:33N 49°10' W 123°55'2 2.3
2016-Jun-20 12:32N 49°11' W 123°52'0 0.0
2016-Jun-20 11:32N 49°11' W 123°52'0 0.0
2016-Jun-20 10:32N 49°11' W 123°52'0 0.0
2016-Jun-20 09:32N 49°11' W 123°52'0 0.0
2016-Jun-20 08:32N 49°11' W 123°52'0 0.0
2016-Jun-20 07:32N 49°11' W 123°52'0 0.0
2016-Jun-20 06:32N 49°11' W 123°52'0 0.2
2016-Jun-20 05:33N 49°11' W 123°52'0 0.2
2016-Jun-20 04:34N 49°11' W 123°52'1 0.6
2016-Jun-20 03:33N 49°11' W 123°53'0 0.3
2016-Jun-20 02:33N 49°11' W 123°53'1 0.5
2016-Jun-20 01:34N 49°11' W 123°52'0 0.4
2016-Jun-20 00:33N 49°11' W 123°52'1 0.6
2016-Jun-19 23:33N 49°11' W 123°53'2 2.2
2016-Jun-19 22:32N 49°10' W 123°56'3 2.9
2016-Jun-19 21:33N 49°11' W 123°52'1 0.5
2016-Jun-19 20:34N 49°11' W 123°52'1 0.5
2016-Jun-19 19:33N 49°11' W 123°52'2 1.7
2016-Jun-19 18:33N 49°10' W 123°54'1 1.2
2016-Jun-19 17:32N 49°10' W 123°56'1 0.9
2016-Jun-19 16:33N 49°10' W 123°54'2 1.9
2016-Jun-19 15:33N 49°11' W 123°52'3 1.4
2016-Jun-19 13:34N 49°10' W 123°56'3 2.7
2016-Jun-19 12:33N 49°11' W 123°52'0 0.0
2016-Jun-19 11:33N 49°11' W 123°52'0 0.0
2016-Jun-19 10:33N 49°11' W 123°52'0 0.0
2016-Jun-19 09:33N 49°11' W 123°52'0 0.0
2016-Jun-19 08:33N 49°11' W 123°52'0 0.0
2016-Jun-19 07:33N 49°11' W 123°52'0 0.0
2016-Jun-19 06:33N 49°11' W 123°52'0 0.5
2016-Jun-19 05:34N 49°11' W 123°52'0 0.1
2016-Jun-19 04:33N 49°11' W 123°52'0 0.2
2016-Jun-19 03:33N 49°11' W 123°53'1 0.7
2016-Jun-19 02:34N 49°11' W 123°52'0 0.0
2016-Jun-19 01:33N 49°11' W 123°52'0 0.0
2016-Jun-19 00:34N 49°11' W 123°52'2 1.7
2016-Jun-18 23:33N 49°10' W 123°54'1 1.1
2016-Jun-18 22:27N 49°10' W 123°56'3 3.2
2016-Jun-18 21:33N 49°11' W 123°52'0 0.0
2016-Jun-18 20:33N 49°11' W 123°52'0 0.0
2016-Jun-18 19:33N 49°11' W 123°52'2 1.9
2016-Jun-18 18:33N 49°10' W 123°54'1 0.9
2016-Jun-18 17:26N 49°10' W 123°56'1 1.2
2016-Jun-18 16:33N 49°10' W 123°54'2 1.9
2016-Jun-18 15:34N 49°11' W 123°52'0 0.0
2016-Jun-18 14:33N 49°11' W 123°52'3 2.9
2016-Jun-18 13:34N 49°10' W 123°56'3 2.8
2016-Jun-18 12:32N 49°11' W 123°52'0 0.0
2016-Jun-18 11:32N 49°11' W 123°52'0 0.0
2016-Jun-18 10:32N 49°11' W 123°52'0 0.0
2016-Jun-18 09:32N 49°11' W 123°52'0 0.0
2016-Jun-18 08:32N 49°11' W 123°52'0 0.0
2016-Jun-18 07:32N 49°11' W 123°52'0 0.0
2016-Jun-18 06:32N 49°11' W 123°52'1 0.6
2016-Jun-18 05:34N 49°11' W 123°53'0 0.1
2016-Jun-18 04:34N 49°11' W 123°52'  

Dump ship's entire track history